Time;durP1;ratioP1;P1;durP2;ratioP2;P2;SDS_P1;SDS_P2;PMS_P1;PMS_P2;Temp;Humidity;BMP_temperature;BMP_pressure;BME280_temperature;BME280_humidity;BME280_pressure;Samples;Min_cycle;Max_cycle;Signal;HPM_P1;HPM_P2
2022/07/14 00:01:27;;;;;;;5.47;1.37;;;;;;;17.61;67.33;100954.44;5074610;28;20215;-76
2022/07/14 00:03:54;;;;;;;5.17;1.77;;;;;;;17.76;67.31;100966.19;5066181;28;20258;-76
2022/07/14 00:06:21;;;;;;;5.53;2.57;;;;;;;17.62;67.99;100969.38;5066081;28;20200;-76
2022/07/14 00:08:48;;;;;;;7.70;2.27;;;;;;;17.38;69.45;100936.00;5066004;28;20293;-76
2022/07/14 00:11:14;;;;;;;5.37;2.27;;;;;;;17.56;68.93;100924.75;5066111;28;20205;-75
2022/07/14 00:13:41;;;;;;;7.43;2.23;;;;;;;17.80;68.34;100929.91;5074889;28;20261;-76
2022/07/14 00:16:07;;;;;;;7.57;2.60;;;;;;;17.85;67.92;100949.13;5073243;28;20615;-76
2022/07/14 00:18:34;;;;;;;13.13;2.90;;;;;;;17.70;68.49;100952.34;5074628;28;20289;-76
2022/07/14 00:21:00;;;;;;;7.17;2.77;;;;;;;17.79;68.58;100954.63;5074496;28;20208;-76
2022/07/14 00:23:28;;;;;;;6.70;3.20;;;;;;;17.82;68.74;100955.38;5074279;28;20273;-76
2022/07/14 00:25:55;;;;;;;8.13;2.33;;;;;;;17.77;68.73;100956.47;5074066;28;20220;-74
2022/07/14 00:28:21;;;;;;;10.67;2.73;;;;;;;17.66;69.40;100931.38;5074550;28;20224;-75
2022/07/14 00:30:51;;;;;;;6.37;2.07;;;;;;;17.67;69.35;100943.63;5074591;28;20331;-75
2022/07/14 00:33:18;;;;;;;9.43;2.67;;;;;;;17.43;70.91;100908.53;5074285;28;20211;-75
2022/07/14 00:35:45;;;;;;;7.33;2.80;;;;;;;17.22;71.72;100883.88;5073859;28;20242;-75
2022/07/14 00:38:12;;;;;;;6.83;2.03;;;;;;;17.27;71.83;100863.41;5067763;28;20232;-75
2022/07/14 00:40:40;;;;;;;7.60;2.70;;;;;;;17.18;72.46;100847.09;5064902;28;20208;-75
2022/07/14 00:43:06;;;;;;;6.50;2.30;;;;;;;17.25;72.08;100853.84;5074326;28;20232;-74
2022/07/14 00:45:33;;;;;;;11.43;2.63;;;;;;;17.25;72.25;100867.03;5073976;28;20219;-75
2022/07/14 00:47:59;;;;;;;9.30;1.97;;;;;;;17.35;72.20;100851.69;5074047;28;20224;-75
2022/07/14 00:50:26;;;;;;;6.20;2.17;;;;;;;17.49;71.69;100861.69;5074249;28;20212;-75
2022/07/14 00:52:53;;;;;;;6.37;2.00;;;;;;;17.68;70.84;100873.22;5074178;28;20234;-75
2022/07/14 00:55:19;;;;;;;8.17;1.97;;;;;;;17.36;71.65;100878.03;5073202;28;20611;-74
2022/07/14 00:57:47;;;;;;;7.80;2.57;;;;;;;17.44;71.83;100867.16;5073902;28;20296;-75
2022/07/14 01:00:15;;;;;;;5.67;2.20;;;;;;;17.33;71.99;100883.41;5074145;28;20242;-75
2022/07/14 01:02:43;;;;;;;7.43;2.40;;;;;;;17.43;71.90;100865.44;5073440;28;20236;-75
2022/07/14 01:05:10;;;;;;;6.93;2.40;;;;;;;17.03;73.14;100869.66;5073714;28;20209;-75
2022/07/14 01:07:36;;;;;;;7.90;2.97;;;;;;;17.10;73.60;100830.72;5072094;28;20205;-75
2022/07/14 01:10:05;;;;;;;8.60;2.30;;;;;;;16.87;74.50;100814.88;5061929;28;20251;-75
2022/07/14 01:12:32;;;;;;;11.10;2.77;;;;;;;16.82;74.98;100793.09;5071439;28;20196;-74
2022/07/14 01:15:00;;;;;;;10.00;2.83;;;;;;;16.69;75.80;100768.13;5073309;28;20207;-75
2022/07/14 01:17:26;;;;;;;7.30;2.73;;;;;;;16.82;75.53;100776.44;5073270;28;20204;-75
2022/07/14 01:19:53;;;;;;;7.23;2.43;;;;;;;16.97;74.88;100796.91;5073750;28;20208;-75
2022/07/14 01:22:21;;;;;;;12.50;2.87;;;;;;;16.89;74.87;100804.28;5073160;28;20431;-74
2022/07/14 01:24:48;;;;;;;5.67;2.60;;;;;;;17.05;74.71;100810.66;5073267;28;20308;-75
2022/07/14 01:27:14;;;;;;;8.63;2.37;;;;;;;17.31;73.17;100836.91;5073180;28;20736;-75
2022/07/14 01:29:40;;;;;;;5.77;2.20;;;;;;;17.44;72.53;100859.22;5073150;28;20228;-74
2022/07/14 01:32:07;;;;;;;3.83;1.97;;;;;;;17.41;72.53;100867.28;5073287;28;20204;-74
2022/07/14 01:34:33;;;;;;;8.03;2.60;;;;;;;17.31;72.80;100874.72;5073393;28;20208;-74
2022/07/14 01:37:00;;;;;;;9.30;3.13;;;;;;;17.10;73.78;100850.03;5072447;28;20739;-75
2022/07/14 01:39:28;;;;;;;6.37;2.20;;;;;;;17.13;74.09;100844.66;5064651;28;20224;-74
2022/07/14 01:41:54;;;;;;;7.73;2.90;;;;;;;17.30;73.47;100854.50;5065946;28;20207;-74
2022/07/14 01:44:21;;;;;;;7.57;2.43;;;;;;;17.19;73.57;100862.00;5073492;28;20223;-74
2022/07/14 01:46:47;;;;;;;7.70;4.00;;;;;;;17.27;73.14;100860.78;5072575;28;20208;-75
2022/07/14 01:49:15;;;;;;;7.23;2.47;;;;;;;17.27;72.93;100879.25;5072776;28;20771;-74
2022/07/14 01:51:41;;;;;;;11.73;3.00;;;;;;;17.27;72.98;100881.88;5072833;28;20219;-75
2022/07/14 01:54:08;;;;;;;7.90;2.70;;;;;;;16.98;74.26;100885.66;5072639;28;20204;-75
2022/07/14 01:56:39;;;;;;;5.53;2.10;;;;;;;16.98;74.60;100842.59;5071932;28;20205;-76
2022/07/14 01:59:06;;;;;;;11.17;3.23;;;;;;;17.19;74.06;100856.75;5072573;28;20224;-74
2022/07/14 02:01:42;;;;;;;8.90;2.37;;;;;;;17.23;73.49;100877.66;5072422;28;20224;-75
2022/07/14 02:04:10;;;;;;;9.10;2.73;;;;;;;17.24;73.88;100881.13;5072623;28;20231;-75
2022/07/14 02:06:38;;;;;;;6.93;2.50;;;;;;;17.10;73.62;100894.88;5072081;28;20208;-75
2022/07/14 02:09:05;;;;;;;6.83;2.17;;;;;;;17.23;72.88;100905.81;5064866;28;20225;-74
2022/07/14 02:14:17;;;;;;;10.13;2.20;;;;;;;17.32;71.71;100971.41;5072227;28;20230;-74
2022/07/14 02:16:43;;;;;;;10.63;2.20;;;;;;;17.18;72.99;100944.69;5072191;28;20250;-75
2022/07/14 02:19:09;;;;;;;9.77;2.30;;;;;;;17.12;73.36;100913.28;5072671;28;20235;-75
2022/07/14 02:21:36;;;;;;;6.10;2.07;;;;;;;17.10;73.21;100915.13;5072037;28;20205;-75
2022/07/14 02:24:03;;;;;;;6.40;1.90;;;;;;;17.20;72.31;100937.59;5072262;28;20281;-75
2022/07/14 02:26:29;;;;;;;7.90;2.43;;;;;;;17.07;72.75;100934.56;5072041;28;20243;-75
2022/07/14 02:28:55;;;;;;;7.80;2.63;;;;;;;17.04;72.44;100942.59;5071998;28;20255;-75
2022/07/14 02:31:23;;;;;;;5.97;2.70;;;;;;;17.13;72.34;100942.25;5072311;28;20257;-75
2022/07/14 02:33:50;;;;;;;6.40;2.27;;;;;;;16.86;73.05;100947.63;5072347;28;20250;-75
2022/07/14 02:36:16;;;;;;;7.57;2.13;;;;;;;16.89;73.44;100925.59;5071588;28;20211;-75
2022/07/14 02:38:43;;;;;;;9.17;2.27;;;;;;;16.99;73.33;100913.75;5063358;28;20740;-75
2022/07/14 02:41:10;;;;;;;6.30;2.03;;;;;;;17.12;72.78;100939.66;5063482;28;20253;-76
2022/07/14 02:43:37;;;;;;;5.73;1.90;;;;;;;17.20;72.07;100967.47;5071532;28;20234;-75
2022/07/14 02:46:04;;;;;;;6.87;2.40;;;;;;;17.21;72.03;100971.84;5071634;28;20253;-76
2022/07/14 02:48:32;;;;;;;6.57;2.43;;;;;;;17.25;71.58;100980.50;5071736;28;20260;-75
2022/07/14 02:50:59;;;;;;;8.13;2.10;;;;;;;17.26;71.16;100992.75;5071220;28;20735;-75
2022/07/14 02:53:26;;;;;;;7.00;2.37;;;;;;;17.28;71.65;100985.63;5071451;28;20208;-75
2022/07/14 02:55:52;;;;;;;7.00;2.57;;;;;;;17.27;71.23;100990.06;5071271;28;20727;-74
2022/07/14 02:58:19;;;;;;;6.73;2.03;;;;;;;17.31;70.76;100996.09;5071635;28;20235;-75
2022/07/14 03:00:45;;;;;;;6.33;1.90;;;;;;;17.30;70.85;101002.28;5071681;28;20638;-75
2022/07/14 03:03:12;;;;;;;6.13;2.00;;;;;;;17.32;71.23;101002.22;5071942;28;20220;-75
2022/07/14 03:05:40;;;;;;;9.97;3.00;;;;;;;17.34;70.79;100997.75;5071345;28;20678;-75
2022/07/14 03:08:06;;;;;;;6.97;2.17;;;;;;;17.27;71.33;100986.56;5065813;28;20236;-75
2022/07/14 03:10:33;;;;;;;5.27;1.90;;;;;;;17.19;71.62;100975.47;5061268;28;20205;-75
2022/07/14 03:12:59;;;;;;;4.80;1.90;;;;;;;17.20;71.32;100977.16;5071748;28;20204;-75
2022/07/14 03:15:26;;;;;;;5.63;2.03;;;;;;;17.13;71.57;100978.31;5071497;28;20215;-75
2022/07/14 03:17:52;;;;;;;8.13;2.10;;;;;;;17.16;71.18;100981.69;5071462;28;20567;-74
2022/07/14 03:20:19;;;;;;;9.10;2.20;;;;;;;17.12;72.80;100940.50;5071917;28;20203;-75
2022/07/14 03:22:47;;;;;;;7.87;2.37;;;;;;;17.15;72.18;100939.56;5071528;28;20231;-75
2022/07/14 03:25:13;;;;;;;6.40;2.47;;;;;;;17.16;71.89;100946.53;5071182;28;20209;-75
2022/07/14 03:27:41;;;;;;;5.50;2.07;;;;;;;16.98;71.90;100959.50;5071776;28;20615;-75
2022/07/14 03:30:09;;;;;;;5.67;2.07;;;;;;;17.03;71.50;100970.75;5071626;28;20306;-74
2022/07/14 03:32:36;;;;;;;6.93;2.37;;;;;;;17.01;71.50;100972.59;5071535;28;20573;-75
2022/07/14 03:35:03;;;;;;;5.90;2.13;;;;;;;17.03;71.66;100973.38;5071243;28;20673;-75
2022/07/14 03:37:29;;;;;;;4.50;2.10;;;;;;;17.12;73.23;100944.94;5070522;28;20300;-75
2022/07/14 03:39:57;;;;;;;11.10;2.83;;;;;;;17.12;73.07;100939.66;5059555;28;20235;-75
2022/07/14 03:42:24;;;;;;;6.20;2.00;;;;;;;17.04;72.59;100940.81;5068331;28;20237;-75
2022/07/14 03:44:50;;;;;;;5.20;2.20;;;;;;;17.06;73.00;100951.31;5071022;28;20245;-74
2022/07/14 03:47:17;;;;;;;7.97;2.80;;;;;;;17.09;73.22;100937.16;5071624;28;20207;-74
2022/07/14 03:49:43;;;;;;;6.43;2.40;;;;;;;17.10;73.37;100931.81;5072015;28;20636;-74
2022/07/14 03:52:10;;;;;;;5.53;2.53;;;;;;;16.94;72.72;100957.91;5074796;28;20673;-74
2022/07/14 03:54:37;;;;;;;9.27;2.37;;;;;;;16.95;73.28;100943.81;5074497;28;20200;-75
2022/07/14 03:57:05;;;;;;;6.60;2.20;;;;;;;17.00;73.25;100943.63;5074937;28;20211;-75
2022/07/14 03:59:32;;;;;;;13.40;3.17;;;;;;;16.97;73.25;100944.59;5074822;28;20773;-75
2022/07/14 04:01:58;;;;;;;5.17;2.63;;;;;;;17.01;72.77;100940.94;5074931;28;20219;-75
2022/07/14 04:04:24;;;;;;;7.60;2.43;;;;;;;16.96;72.83;100953.41;5074857;28;20273;-75
2022/07/14 04:06:51;;;;;;;8.67;3.00;;;;;;;17.01;72.91;100934.81;5074149;28;20208;-75
2022/07/14 04:09:17;;;;;;;8.97;2.40;;;;;;;16.95;73.07;100940.31;5066689;28;20238;-74
2022/07/14 04:11:44;;;;;;;9.30;2.50;;;;;;;16.96;73.35;100934.97;5066222;28;20669;-75
2022/07/14 04:14:11;;;;;;;5.00;2.63;;;;;;;16.92;73.77;100928.09;5074652;28;20203;-75
2022/07/14 04:16:39;;;;;;;11.87;2.33;;;;;;;16.94;74.42;100913.06;5074588;28;20254;-75
2022/07/14 04:19:07;;;;;;;6.90;2.20;;;;;;;17.02;74.38;100896.94;5074566;28;20234;-75
2022/07/14 04:21:33;;;;;;;5.43;2.40;;;;;;;16.82;74.72;100897.72;5074242;28;20298;-75
2022/07/14 04:24:00;;;;;;;7.73;2.97;;;;;;;16.68;74.94;100900.81;5074409;28;20241;-75
2022/07/14 04:26:26;;;;;;;7.07;2.83;;;;;;;16.44;75.94;100887.63;5074387;28;20211;-75
2022/07/14 04:28:53;;;;;;;7.93;2.73;;;;;;;16.34;77.11;100840.59;5074314;28;20713;-75
2022/07/14 04:31:21;;;;;;;6.67;2.70;;;;;;;16.37;77.68;100824.66;5074712;28;20208;-75
2022/07/14 04:33:47;;;;;;;9.83;2.77;;;;;;;16.22;77.60;100823.47;5074428;28;20207;-75
2022/07/14 04:36:14;;;;;;;8.33;2.60;;;;;;;16.23;78.04;100812.00;5073783;28;20211;-75
2022/07/14 04:38:41;;;;;;;10.00;2.80;;;;;;;15.96;79.01;100792.81;5066491;28;20231;-75
2022/07/14 04:41:08;;;;;;;7.47;2.43;;;;;;;15.98;79.20;100786.56;5066082;28;20222;-75
2022/07/14 04:43:34;;;;;;;8.00;2.37;;;;;;;15.86;79.78;100774.69;5073905;28;20227;-75
2022/07/14 04:46:01;;;;;;;14.30;3.00;;;;;;;15.93;79.51;100780.59;5073953;28;20210;-75
2022/07/14 04:48:28;;;;;;;8.63;2.93;;;;;;;16.04;79.66;100774.94;5074039;28;20273;-75
2022/07/14 04:53:50;;;;;;;10.40;2.67;;;;;;;15.85;80.07;100780.00;5011900;28;20198;-74
2022/07/14 04:56:17;;;;;;;10.33;2.30;;;;;;;16.04;79.81;100777.59;5057882;28;20245;-74
2022/07/14 04:58:43;;;;;;;8.27;2.50;;;;;;;16.15;78.97;100790.34;5074233;28;20231;-75
2022/07/14 05:01:12;;;;;;;10.30;2.97;;;;;;;16.17;78.63;100810.44;5073572;28;20223;-74
2022/07/14 05:03:40;;;;;;;7.43;2.43;;;;;;;16.24;78.65;100826.91;5074025;28;20215;-75
2022/07/14 05:06:06;;;;;;;9.57;2.53;;;;;;;16.22;78.90;100818.19;5073453;28;20215;-74
2022/07/14 05:08:33;;;;;;;8.97;2.60;;;;;;;16.07;79.33;100794.13;5065388;28;20249;-75
2022/07/14 05:10:59;;;;;;;7.73;2.47;;;;;;;16.18;79.29;100792.88;5065305;28;20196;-75
2022/07/14 05:13:26;;;;;;;10.53;2.33;;;;;;;16.36;78.30;100815.06;5073911;28;20199;-75
2022/07/14 05:15:53;;;;;;;8.13;2.17;;;;;;;16.55;77.07;100847.72;5073681;28;20269;-75
2022/07/14 05:18:20;;;;;;;8.40;2.60;;;;;;;16.58;76.67;100870.47;5060972;28;20260;-76
2022/07/14 05:20:47;;;;;;;5.37;2.80;;;;;;;16.65;75.81;100890.41;5058287;28;20202;-75
2022/07/14 05:23:14;;;;;;;10.10;2.40;;;;;;;16.67;76.30;100893.84;5052735;28;20283;-75
2022/07/14 05:25:40;;;;;;;6.20;1.60;;;;;;;16.67;75.81;100910.53;5052338;28;20666;-75
2022/07/14 05:28:07;;;;;;;6.27;2.40;;;;;;;16.19;78.09;100882.34;5051494;28;20223;-75
2022/07/14 05:30:33;;;;;;;9.93;3.00;;;;;;;16.02;79.38;100824.19;5052309;28;20281;-75
2022/07/14 05:33:00;;;;;;;10.53;2.37;;;;;;;16.14;78.83;100812.34;5052876;28;20200;-74
2022/07/14 05:35:27;;;;;;;9.17;3.20;;;;;;;16.13;79.54;100795.66;5052397;28;20258;-74
2022/07/14 05:37:54;;;;;;;7.63;2.77;;;;;;;16.25;78.83;100810.16;5052505;28;20273;-74
2022/07/14 05:40:21;;;;;;;8.33;2.53;;;;;;;16.35;78.37;100824.75;5052997;28;20265;-74
2022/07/14 05:42:47;;;;;;;6.57;2.20;;;;;;;16.47;77.66;100842.72;5052235;28;20834;-74
2022/07/14 05:45:14;;;;;;;5.77;2.37;;;;;;;16.07;78.76;100844.19;5052457;28;20292;-74
2022/07/14 05:47:41;;;;;;;6.93;2.53;;;;;;;16.31;78.49;100825.75;5052666;28;20208;-74
2022/07/14 05:50:09;;;;;;;9.00;2.67;;;;;;;16.47;77.81;100826.03;5052367;28;20201;-74
2022/07/14 05:52:35;;;;;;;6.63;2.43;;;;;;;16.66;76.54;100863.13;5052329;28;20276;-74
2022/07/14 05:55:03;;;;;;;6.33;2.43;;;;;;;16.68;74.58;100911.38;5052011;28;20617;-75
2022/07/14 05:57:30;;;;;;;9.07;2.43;;;;;;;16.63;74.91;100940.53;5049891;28;20196;-74
2022/07/14 05:59:56;;;;;;;6.70;2.07;;;;;;;16.81;74.31;100949.59;5052514;28;20207;-75
2022/07/14 06:02:22;;;;;;;6.27;2.37;;;;;;;16.88;73.73;100961.63;5052169;28;20640;-74
2022/07/14 06:04:49;;;;;;;7.00;2.77;;;;;;;16.95;73.36;100974.59;5048821;28;20221;-74
2022/07/14 06:07:15;;;;;;;7.97;2.43;;;;;;;16.87;73.24;100973.09;5052100;28;20209;-73
2022/07/14 06:09:42;;;;;;;7.10;2.20;;;;;;;17.00;73.39;100981.41;5052557;28;20235;-75
2022/07/14 06:12:11;;;;;;;8.07;2.20;;;;;;;17.16;72.63;101000.16;5052494;28;20200;-75
2022/07/14 06:14:37;;;;;;;6.17;2.10;;;;;;;16.80;73.32;100999.69;5051330;28;20216;-75
2022/07/14 06:17:04;;;;;;;7.17;1.93;;;;;;;16.98;72.73;100996.41;5051813;28;20204;-75
2022/07/14 06:19:30;;;;;;;8.93;2.57;;;;;;;16.93;72.63;100993.13;5049315;28;20236;-75
2022/07/14 06:21:56;;;;;;;7.87;2.20;;;;;;;17.03;72.20;100999.75;5051490;28;20659;-75
2022/07/14 06:24:23;;;;;;;6.77;1.90;;;;;;;17.18;72.06;100994.81;5051942;28;20278;-75
2022/07/14 06:26:49;;;;;;;11.70;2.33;;;;;;;17.32;70.77;101008.34;5051446;28;20251;-74
2022/07/14 06:29:17;;;;;;;10.90;2.20;;;;;;;17.46;69.96;101050.94;5051737;28;20220;-75
2022/07/14 06:31:43;;;;;;;6.97;2.07;;;;;;;17.57;69.04;101079.56;5051756;28;20254;-75
2022/07/14 06:34:10;;;;;;;12.50;2.43;;;;;;;17.64;67.84;101107.47;5049334;28;20205;-75
2022/07/14 06:36:37;;;;;;;5.63;1.77;;;;;;;17.67;67.30;101133.72;5051063;28;20201;-75
2022/07/14 06:39:03;;;;;;;7.10;2.17;;;;;;;17.58;66.12;101164.88;5052727;28;20775;-77
2022/07/14 06:41:29;;;;;;;7.10;2.10;;;;;;;17.67;66.47;101175.13;5052213;28;20231;-79
2022/07/14 06:43:56;;;;;;;6.20;1.57;;;;;;;17.75;65.88;101165.13;5053644;28;20271;-82
2022/07/14 06:46:24;;;;;;;6.27;2.57;;;;;;;17.66;66.65;101168.13;5052016;28;20640;-76
2022/07/14 06:48:51;;;;;;;8.03;2.30;;;;;;;17.62;66.51;101159.47;5046795;28;20318;-76
2022/07/14 06:51:17;;;;;;;7.50;1.80;;;;;;;17.82;66.74;101147.31;5051592;28;20231;-76
2022/07/14 06:53:44;;;;;;;7.40;1.80;;;;;;;17.70;65.73;101172.38;5051209;28;20260;-75
2022/07/14 06:56:10;;;;;;;8.07;2.17;;;;;;;17.69;65.49;101167.16;5051198;28;20198;-75
2022/07/14 06:58:37;;;;;;;8.10;2.10;;;;;;;17.57;65.56;101161.41;5051084;28;20213;-75
2022/07/14 07:01:03;;;;;;;5.87;2.00;;;;;;;17.22;67.21;101163.53;5050549;28;20239;-76
2022/07/14 07:03:31;;;;;;;5.00;2.33;;;;;;;17.46;66.23;101151.25;5051045;28;20208;-75
2022/07/14 07:08:42;;;;;;;5.70;1.73;;;;;;;17.66;64.77;101199.81;5050109;28;20246;-75
2022/07/14 07:11:09;;;;;;;5.33;1.53;;;;;;;17.64;64.43;101198.97;5055086;28;20738;-78
2022/07/14 07:13:36;;;;;;;8.00;1.97;;;;;;;17.83;64.48;101200.06;5053488;28;20210;-81
2022/07/14 07:16:04;;;;;;;6.77;2.30;;;;;;;17.27;64.65;101222.28;5053881;28;20204;-79
2022/07/14 07:18:32;;;;;;;4.40;2.10;;;;;;;17.39;65.59;101197.22;5053650;28;20229;-79
2022/07/14 07:20:58;;;;;;;6.53;2.37;;;;;;;17.59;64.71;101190.38;5056791;28;20205;-77
2022/07/14 07:23:25;;;;;;;4.73;2.00;;;;;;;17.81;64.55;101201.88;5055829;28;20213;-77
2022/07/14 07:25:52;;;;;;;7.03;2.27;;;;;;;17.99;63.67;101210.94;5054205;28;20224;-78
2022/07/14 07:28:18;;;;;;;4.90;2.07;;;;;;;18.20;63.35;101214.56;5058815;28;20221;-78
2022/07/14 07:30:45;;;;;;;6.00;2.10;;;;;;;18.15;63.83;101223.56;5059240;28;20212;-78
2022/07/14 07:33:11;;;;;;;4.17;2.20;;;;;;;18.30;63.64;101209.78;5057183;28;20267;-83
2022/07/14 07:35:42;;;;;;;5.97;1.90;;;;;;;18.33;63.61;101204.34;5059770;28;20198;-79
2022/07/14 07:38:09;;;;;;;5.20;1.70;;;;;;;18.17;63.83;101193.50;5057293;28;20312;-80
2022/07/14 07:40:35;;;;;;;6.57;2.00;;;;;;;18.10;64.02;101192.03;5058869;28;20221;-79
2022/07/14 07:43:02;;;;;;;5.57;1.83;;;;;;;17.89;63.52;101188.41;5058452;28;20249;-83
2022/07/14 07:45:28;;;;;;;3.60;1.90;;;;;;;17.58;64.19;101191.28;5058189;28;20278;-81
2022/07/14 07:47:55;;;;;;;4.43;1.70;;;;;;;17.47;64.05;101194.31;5057315;28;20282;-78
2022/07/14 07:50:21;;;;;;;4.03;1.40;;;;;;;17.55;63.26;101184.34;5056658;28;20624;-77
2022/07/14 07:52:49;;;;;;;3.07;1.60;;;;;;;17.32;63.02;101219.47;5056443;28;20207;-78
2022/07/14 07:55:15;;;;;;;5.13;1.50;;;;;;;17.59;63.93;101201.81;5056858;28;20197;-78
2022/07/14 07:57:43;;;;;;;4.90;1.70;;;;;;;17.84;63.41;101204.44;5056796;28;20208;-77
2022/07/14 08:00:10;;;;;;;5.40;1.50;;;;;;;17.69;62.28;101238.44;5056477;28;20291;-77
2022/07/14 08:02:44;;;;;;;4.47;1.67;;;;;;;17.96;62.17;101236.63;5055452;28;20264;-79
2022/07/14 08:05:11;;;;;;;6.10;1.70;;;;;;;18.15;61.62;101239.41;5052669;28;20278;-80
2022/07/14 08:07:38;;;;;;;7.13;2.17;;;;;;;18.11;62.25;101243.09;5057530;28;20212;-77
2022/07/14 08:10:07;;;;;;;4.93;2.00;;;;;;;18.32;61.46;101244.94;5058819;28;20241;-80
2022/07/14 08:12:33;;;;;;;5.93;1.97;;;;;;;18.19;61.11;101265.66;5056504;28;20208;-80
2022/07/14 08:15:00;;;;;;;3.93;1.10;;;;;;;18.16;60.61;101270.22;5057073;28;20193;-78
2022/07/14 08:17:26;;;;;;;8.27;1.90;;;;;;;17.97;61.17;101277.97;5057726;28;20262;-78
2022/07/14 08:19:53;;;;;;;3.50;1.50;;;;;;;17.89;60.84;101270.31;5055813;28;20196;-76
2022/07/14 08:22:24;;;;;;;8.83;2.27;;;;;;;18.00;61.42;101257.56;5054118;28;20611;-76
2022/07/14 08:24:50;;;;;;;3.73;1.50;;;;;;;18.14;60.66;101259.72;5053899;28;20225;-76
2022/07/14 08:27:18;;;;;;;4.37;1.80;;;;;;;18.20;60.35;101267.41;5054154;28;20662;-76
2022/07/14 08:29:44;;;;;;;4.23;2.13;;;;;;;18.23;60.36;101274.34;5052867;28;20229;-76
2022/07/14 08:32:11;;;;;;;6.70;2.03;;;;;;;18.37;59.96;101272.03;5053391;28;20217;-76
2022/07/14 08:34:38;;;;;;;5.27;1.60;;;;;;;18.41;59.22;101284.25;5053429;28;20625;-76
2022/07/14 08:37:05;;;;;;;4.20;1.60;;;;;;;18.55;58.55;101304.00;5052931;28;20206;-76
2022/07/14 08:39:32;;;;;;;5.67;1.63;;;;;;;18.21;58.67;101327.25;5062222;28;20228;-76
2022/07/14 08:42:00;;;;;;;5.50;1.27;;;;;;;18.33;58.36;101310.09;5067451;28;20219;-77
2022/07/14 08:44:28;;;;;;;2.37;1.50;;;;;;;18.51;58.91;101315.59;5073803;28;20234;-75
2022/07/14 08:46:56;;;;;;;5.90;1.70;;;;;;;18.66;59.06;101302.66;5074026;28;20619;-76
2022/07/14 08:49:23;;;;;;;7.30;2.00;;;;;;;18.78;58.14;101298.66;5073580;28;20862;-76
2022/07/14 08:51:50;;;;;;;3.70;1.80;;;;;;;18.80;57.07;101307.44;5074211;28;20209;-76
2022/07/14 08:54:17;;;;;;;4.90;1.60;;;;;;;18.78;57.56;101322.47;5073893;28;20258;-76
2022/07/14 08:56:44;;;;;;;4.53;1.40;;;;;;;18.68;56.06;101330.84;5073829;28;20213;-76
2022/07/14 08:59:10;;;;;;;4.17;1.50;;;;;;;18.62;56.52;101369.81;5074008;28;20281;-76
2022/07/14 09:01:38;;;;;;;4.40;1.87;;;;;;;18.77;56.14;101339.28;5074172;28;20213;-77
2022/07/14 09:04:05;;;;;;;4.10;1.40;;;;;;;18.97;56.30;101335.88;5074315;28;20213;-77
2022/07/14 09:06:50;;;;;;;4.50;1.40;;;;;;;19.12;55.18;101358.22;5073624;28;20634;-77
2022/07/14 09:09:19;;;;;;;3.03;1.63;;;;;;;19.20;55.45;101376.44;5065656;28;20224;-77
2022/07/14 09:11:58;;;;;;;4.97;1.77;;;;;;;19.31;54.55;101365.44;5054547;28;20618;-77
2022/07/14 09:14:25;;;;;;;3.30;1.90;;;;;;;19.15;54.92;101375.78;5052376;28;20207;-77
2022/07/14 09:16:53;;;;;;;5.23;2.07;;;;;;;19.04;55.27;101379.69;5052749;28;20219;-77
2022/07/14 09:19:20;;;;;;;2.80;1.63;;;;;;;18.77;55.02;101383.38;5053065;28;20232;-77
2022/07/14 09:21:55;;;;;;;4.83;1.97;;;;;;;18.81;54.62;101355.91;5052839;28;20208;-77
2022/07/14 09:24:22;;;;;;;4.93;2.03;;;;;;;18.64;52.84;101398.84;5050815;28;20211;-77
2022/07/14 09:26:51;;;;;;;6.33;1.90;;;;;;;18.78;53.28;101406.25;5053714;28;20669;-78
2022/07/14 09:29:18;;;;;;;3.70;2.17;;;;;;;18.84;53.39;101406.91;5051331;28;20263;-77
2022/07/14 09:31:46;;;;;;;4.33;2.27;;;;;;;19.03;53.88;101414.16;5056102;28;20208;-76
2022/07/14 09:34:27;;;;;;;4.20;1.30;;;;;;;18.93;52.44;101421.59;5052969;28;20228;-76
2022/07/14 09:37:09;;;;;;;5.23;1.47;;;;;;;18.90;50.38;101424.34;5052839;28;20246;-76
2022/07/14 09:39:36;;;;;;;2.97;1.07;;;;;;;18.96;50.38;101439.97;5060695;28;20262;-76
2022/07/14 09:42:02;;;;;;;2.17;1.10;;;;;;;19.10;51.20;101488.88;5066826;28;20208;-76
2022/07/14 09:44:29;;;;;;;2.80;1.20;;;;;;;19.03;51.25;101481.19;5072679;28;20209;-76
2022/07/14 09:46:58;;;;;;;3.80;1.63;;;;;;;19.05;51.50;101489.06;5072499;28;20550;-76
2022/07/14 09:49:27;;;;;;;3.60;1.50;;;;;;;19.12;52.34;101473.81;5072127;28;20236;-76
2022/07/14 09:51:58;;;;;;;6.03;1.43;;;;;;;19.28;52.59;101434.38;5072785;28;20212;-76
2022/07/14 09:54:44;;;;;;;7.77;2.70;;;;;;;19.05;51.56;101433.50;5072129;28;20220;-75
2022/07/14 09:57:19;;;;;;;3.07;1.30;;;;;;;19.27;52.68;101433.53;5072738;28;20218;-78
2022/07/14 09:59:48;;;;;;;3.67;1.27;;;;;;;19.42;52.64;101430.28;5072434;28;20234;-76
2022/07/14 10:02:18;;;;;;;4.23;1.53;;;;;;;19.48;48.37;101420.34;5072423;28;20685;-76
2022/07/14 10:04:46;;;;;;;5.97;1.47;;;;;;;19.47;47.58;101511.31;5072230;28;20219;-76
2022/07/14 10:07:13;;;;;;;3.43;1.40;;;;;;;19.54;49.94;101565.75;5071597;28;20732;-76
2022/07/14 10:09:43;;;;;;;2.20;1.03;;;;;;;19.61;50.58;101512.50;5058311;28;20229;-76
2022/07/14 10:12:10;;;;;;;3.97;1.70;;;;;;;19.69;50.73;101506.88;5064223;28;20185;-75
2022/07/14 10:14:38;;;;;;;2.93;0.90;;;;;;;19.79;50.36;101492.38;5072697;28;20205;-76
2022/07/14 10:17:05;;;;;;;4.27;1.30;;;;;;;20.00;50.25;101474.75;5063897;28;20240;-75
2022/07/14 10:19:32;;;;;;;3.17;1.10;;;;;;;19.86;48.46;101487.72;5070441;28;20281;-75
2022/07/14 10:22:00;;;;;;;2.67;0.90;;;;;;;19.74;48.13;101507.63;5066617;28;20808;-75
2022/07/14 10:24:29;;;;;;;2.90;1.40;;;;;;;19.55;49.21;101535.72;5060806;28;20660;-75
2022/07/14 10:26:57;;;;;;;7.87;1.40;;;;;;;19.76;50.50;101503.13;5071503;28;20228;-76
2022/07/14 10:29:23;;;;;;;3.60;1.07;;;;;;;19.87;49.21;101488.56;5063754;28;20240;-75
2022/07/14 10:32:05;;;;;;;3.37;1.17;;;;;;;19.92;48.95;101494.50;5063918;28;20296;-75
2022/07/14 10:34:38;;;;;;;3.80;0.83;;;;;;;20.10;48.39;101503.50;5071948;28;20532;-76
2022/07/14 10:37:14;;;;;;;3.07;1.30;;;;;;;20.27;47.71;101516.06;5072023;28;20252;-76
2022/07/14 10:39:49;;;;;;;3.37;1.00;;;;;;;20.21;47.99;101549.84;5071964;28;20224;-74
2022/07/14 10:42:27;;;;;;;4.13;1.27;;;;;;;20.09;47.51;101539.75;5072212;28;20213;-76
2022/07/14 10:44:54;;;;;;;3.03;1.10;;;;;;;20.27;47.75;101540.78;5071272;28;20708;-76
2022/07/14 10:47:23;;;;;;;4.63;1.20;;;;;;;20.42;46.56;101537.47;5072222;28;20238;-76
2022/07/14 10:50:06;;;;;;;2.97;1.37;;;;;;;20.21;45.45;101552.50;5071589;28;20720;-76
2022/07/14 10:52:37;;;;;;;2.80;1.10;;;;;;;20.42;45.76;101573.75;5071666;28;20747;-76
2022/07/14 10:55:14;;;;;;;2.37;0.73;;;;;;;20.33;45.17;101584.75;5071359;28;20197;-76
2022/07/14 10:58:21;;;;;;;6.93;2.23;;;;;;;20.61;45.22;101574.75;5071924;28;20258;-76
2022/07/14 11:00:56;;;;;;;2.30;1.33;;;;;;;20.87;45.55;101579.81;5050773;28;20193;-76
2022/07/14 11:03:24;;;;;;;2.17;0.90;;;;;;;21.08;44.17;101581.53;5052055;28;20235;-76
2022/07/14 11:06:20;;;;;;;5.43;1.00;;;;;;;21.18;42.29;101582.00;5054372;28;20282;-77
2022/07/14 11:09:41;;;;;;;1.37;0.80;;;;;;;21.30;43.54;101636.34;5063860;28;20273;-76
2022/07/14 11:12:12;;;;;;;1.53;0.70;;;;;;;21.22;43.70;101634.03;5073815;28;20201;-77
2022/07/14 11:14:40;;;;;;;2.77;0.83;;;;;;;20.90;43.58;101620.38;5066849;28;20201;-77
2022/07/14 11:17:07;;;;;;;2.57;0.80;;;;;;;21.14;44.53;101585.72;5074614;28;20226;-76
2022/07/14 11:19:37;;;;;;;3.23;1.07;;;;;;;21.30;43.22;101567.28;5066753;28;20223;-76
2022/07/14 11:22:14;;;;;;;2.00;0.70;;;;;;;21.47;42.33;101601.94;5065795;28;20240;-76
2022/07/14 11:24:54;;;;;;;2.37;1.00;;;;;;;21.64;44.17;101621.56;5072094;28;20207;-76
2022/07/14 11:27:37;;;;;;;1.90;0.70;;;;;;;21.91;42.57;101595.47;5071806;28;20216;-76
2022/07/14 11:30:26;;;;;;;1.83;0.90;;;;;;;21.95;41.38;101632.47;5071805;28;20220;-76
2022/07/14 11:33:08;;;;;;;2.23;1.07;;;;;;;21.89;40.09;101663.81;5071239;28;20217;-76
2022/07/14 11:38:35;;;;;;;2.17;0.87;;;;;;;22.37;40.27;101684.56;5050598;28;20233;-77
2022/07/14 11:41:08;;;;;;;3.30;1.07;;;;;;;23.05;39.38;101669.69;5050698;28;20201;-76